Ellendale, Delaware
Current Conditions -  °F | °C
As of 8:54 AM on Tuesday 21 Oct 2014 (Local Time) from KGED Reporting Station
Overcast Overcast  
Wind Chill: 59°   Ceiling: 9000
Heat Index: 59°   Visibility: 10mi
Dew Point: 55°   Wind: 7mph
Humidity: 87%   Direction: 180°S
Pressure: 29.89"   Gusts: NA
Location:  38.81°N, 75.42°W
Report Text: KGED 211254Z AUTO 18006KT 10SM OVC090 15/13 A2989 RMK AO2 RAB23E37 SLP122 P0000 T01500128
Loading
Personal Weather Stations






























Interactive Weather Map
Tropical Storm Tracking
New forecast layout! Learn more

10-Day Weather Forecast

Advertisements
Track Severe Weather on mobile